Time;durP1;ratioP1;P1;durP2;ratioP2;P2;SDS_P1;SDS_P2;PMS_P1;PMS_P2;Temp;Humidity;BMP_temperature;BMP_pressure;BME280_temperature;BME280_humidity;BME280_pressure;Samples;Min_cycle;Max_cycle;Signal;HPM_P1;HPM_P2
2021/01/15 00:00:07;;;;;;;13.37;10.67;;;-3.70;1.40;;;-2.94;100.00;95264.94;637993;225;27753;-73
2021/01/15 00:02:36;;;;;;;12.67;11.10;;;-3.60;1.40;;;-2.86;100.00;95258.17;637953;225;25003;-72
2021/01/15 00:05:07;;;;;;;14.90;13.15;;;-3.60;1.40;;;-2.96;100.00;95258.41;632454;224;32012;-72
2021/01/15 00:07:36;;;;;;;16.15;14.45;;;-3.60;1.40;;;-2.86;100.00;95259.78;632378;225;31912;-72
2021/01/15 00:10:06;;;;;;;12.97;11.60;;;-3.50;1.40;;;-2.92;100.00;95259.98;637905;225;23504;-72
2021/01/15 00:12:35;;;;;;;15.53;13.13;;;-3.40;1.40;;;-2.91;100.00;95260.87;632424;225;31992;-71
2021/01/15 00:15:06;;;;;;;15.00;11.77;;;-3.40;1.40;;;-2.85;100.00;95265.73;638015;222;24595;-72
2021/01/15 00:17:35;;;;;;;14.87;12.57;;;-3.50;1.40;;;-2.86;100.00;95256.77;634209;224;32087;-72
2021/01/15 00:20:04;;;;;;;14.77;11.50;;;-3.50;1.40;;;-2.90;100.00;95260.58;666393;215;24832;-72
2021/01/15 00:22:33;;;;;;;15.03;11.67;;;-3.40;1.40;;;-2.92;100.00;95258.25;666088;215;25559;-72
2021/01/15 00:25:02;;;;;;;12.67;10.40;;;-3.30;1.40;;;-2.85;100.00;95257.26;666012;215;24463;-72
2021/01/15 00:27:31;;;;;;;13.90;12.15;;;-3.30;1.40;;;-2.84;100.00;95252.03;645862;220;43110;-72
2021/01/15 00:30:00;;;;;;;15.32;12.95;;;-3.40;1.40;;;-2.80;100.00;95258.93;645941;220;31896;-71
2021/01/15 00:32:30;;;;;;;12.60;11.30;;;-3.30;1.40;;;-2.76;100.00;95261.28;665752;215;24560;-71
2021/01/15 00:34:59;;;;;;;13.90;12.15;;;-3.40;1.40;;;-2.78;100.00;95262.23;659766;215;31676;-71
2021/01/15 00:37:28;;;;;;;13.17;10.47;;;-3.40;1.40;;;-2.86;100.00;95261.38;652135;220;23469;-72
2021/01/15 00:39:57;;;;;;;13.35;11.65;;;-3.40;1.40;;;-2.87;100.00;95263.84;637502;223;32018;-72
2021/01/15 00:42:26;;;;;;;11.73;10.53;;;-3.50;1.40;;;-2.91;100.00;95261.83;665416;215;24003;-72
2021/01/15 00:47:31;;;;;;;14.82;13.32;;;-3.60;1.40;;;-2.92;100.00;95259.15;627488;222;32041;-71
2021/01/15 00:50:00;;;;;;;12.10;10.60;;;-3.70;1.40;;;-3.02;100.00;95255.72;625102;229;24069;-71
2021/01/15 00:52:29;;;;;;;12.00;9.77;;;-3.70;1.40;;;-3.07;100.00;95254.54;624897;229;24615;-71
2021/01/15 00:54:58;;;;;;;14.10;11.80;;;-3.70;1.40;;;-2.97;100.00;95260.37;619278;229;32132;-70
2021/01/15 00:57:27;;;;;;;14.60;10.80;;;-3.80;1.40;;;-3.12;100.00;95254.72;624295;229;30957;-71
2021/01/15 00:59:57;;;;;;;13.13;10.90;;;-3.90;1.40;;;-3.17;100.00;95252.85;624578;229;25253;-71
2021/01/15 01:02:26;;;;;;;15.48;13.48;;;-3.90;1.40;;;-3.16;100.00;95253.61;619179;229;32269;-72
2021/01/15 01:04:55;;;;;;;13.30;11.53;;;-3.90;1.40;;;-3.20;100.00;95252.73;624006;229;23559;-72
2021/01/15 01:07:24;;;;;;;19.20;14.70;;;-3.90;1.40;;;-3.27;100.00;95253.28;618836;229;32151;-72
2021/01/15 01:09:53;;;;;;;15.03;12.90;;;-4.00;1.40;;;-3.31;100.00;95254.80;624231;229;23574;-73
2021/01/15 01:12:22;;;;;;;16.73;14.02;;;-4.10;1.40;;;-3.21;100.00;95258.70;618839;229;32166;-73
2021/01/15 01:14:51;;;;;;;15.93;12.40;;;-4.00;1.40;;;-3.45;100.00;95256.18;624289;229;23566;-73
2021/01/15 01:17:20;;;;;;;17.02;14.98;;;-4.10;1.40;;;-3.35;100.00;95252.70;618870;229;32671;-72
2021/01/15 01:19:49;;;;;;;13.83;12.43;;;-4.10;1.40;;;-3.37;100.00;95253.44;624261;229;26700;-73
2021/01/15 01:22:18;;;;;;;20.42;16.85;;;-4.20;1.40;;;-3.35;100.00;95254.70;618689;229;32926;-73
2021/01/15 01:24:47;;;;;;;22.50;17.60;;;-4.20;1.40;;;-3.54;100.00;95253.53;618550;230;32222;-73
2021/01/15 01:27:17;;;;;;;15.70;12.03;;;-4.30;1.40;;;-3.68;100.00;95255.78;623966;230;23646;-73
2021/01/15 01:29:46;;;;;;;17.85;15.95;;;-4.30;1.40;;;-3.76;100.00;95253.18;618599;229;32175;-73
2021/01/15 01:32:15;;;;;;;20.80;16.10;;;-4.50;1.40;;;-3.83;100.00;95258.38;618512;230;32244;-73
2021/01/15 01:34:44;;;;;;;14.80;12.97;;;-4.50;1.40;;;-3.99;100.00;95260.71;622241;229;23523;-73
2021/01/15 01:37:13;;;;;;;22.83;16.75;;;-4.60;1.40;;;-4.01;100.00;95267.87;619295;229;32216;-73
2021/01/15 01:39:42;;;;;;;18.27;14.00;;;-4.70;1.40;;;-4.09;100.00;95267.30;636487;225;23560;-72
2021/01/15 01:42:11;;;;;;;20.67;15.55;;;-4.70;1.40;;;-4.24;100.00;95265.05;630988;225;31946;-73
2021/01/15 01:44:40;;;;;;;16.00;12.53;;;-4.80;1.40;;;-4.42;100.00;95267.16;624771;229;23521;-73
2021/01/15 01:47:09;;;;;;;20.00;17.48;;;-4.90;1.40;;;-4.50;100.00;95266.14;619387;229;32305;-73
2021/01/15 01:49:38;;;;;;;19.98;16.55;;;-5.10;1.40;;;-4.56;100.00;95267.52;630923;225;32790;-73
2021/01/15 01:52:08;;;;;;;22.65;17.62;;;-5.20;1.40;;;-4.60;100.00;95268.52;619245;229;32556;-73
2021/01/15 01:54:37;;;;;;;15.17;13.33;;;-5.20;1.40;;;-4.71;100.00;95270.70;636452;225;24557;-73
2021/01/15 01:57:06;;;;;;;20.85;16.40;;;-5.30;1.40;;;-4.70;100.00;95274.03;619935;227;32181;-73
2021/01/15 01:59:35;;;;;;;21.23;18.20;;;-5.40;1.40;;;-4.77;100.00;95272.62;632497;224;37705;-71
2021/01/15 02:02:04;;;;;;;19.75;17.20;;;-5.50;1.40;;;-4.99;100.00;95273.44;620388;229;32077;-72
2021/01/15 02:04:33;;;;;;;16.53;13.27;;;-5.50;1.40;;;-5.13;100.00;95272.72;637419;225;24591;-71
2021/01/15 02:07:02;;;;;;;19.27;15.48;;;-5.80;1.40;;;-5.30;100.00;95269.86;619920;229;32386;-71
2021/01/15 02:09:36;;;;;;;18.75;16.67;;;-5.90;1.40;;;-5.40;100.00;95269.70;631481;225;32715;-71
2021/01/15 02:12:07;;;;;;;19.00;16.00;;;-6.10;1.40;;;-5.48;100.00;95275.45;619610;229;32241;-72
2021/01/15 02:14:53;;;;;;;14.57;13.00;;;-6.20;1.40;;;-5.63;100.00;95271.44;625008;229;24100;-72
2021/01/15 02:17:22;;;;;;;18.30;16.10;;;-6.30;1.40;;;-5.61;100.00;95275.14;631205;225;31976;-72
2021/01/15 02:20:04;;;;;;;14.80;12.60;;;-6.40;1.40;;;-5.65;100.00;95270.69;624635;229;24593;-72
2021/01/15 02:22:54;;;;;;;19.30;15.30;;;-6.30;1.40;;;-5.80;100.00;95266.97;631237;225;31978;-71
2021/01/15 02:25:43;;;;;;;20.23;16.33;;;-6.40;1.40;;;-5.82;100.00;95268.24;656208;216;31605;-72
2021/01/15 02:28:30;;;;;;;16.77;13.83;;;-6.50;1.40;;;-5.91;100.00;95264.27;649988;220;23514;-72
2021/01/15 02:31:21;;;;;;;23.40;18.52;;;-6.40;1.40;;;-5.92;100.00;95266.45;656212;212;42847;-72
2021/01/15 02:34:01;;;;;;;23.83;19.48;;;-6.40;1.40;;;-5.88;100.00;95266.44;644313;220;31774;-72
2021/01/15 02:36:36;;;;;;;18.37;14.23;;;-6.40;1.40;;;-5.96;100.00;95269.19;650390;220;24670;-72
2021/01/15 02:39:12;;;;;;;22.00;18.25;;;-6.40;1.40;;;-5.88;100.00;95268.91;640185;220;32099;-72
2021/01/15 02:41:41;;;;;;;25.98;19.83;;;-6.30;1.40;;;-5.97;100.00;95273.28;645876;220;31886;-71
2021/01/15 02:44:10;;;;;;;19.70;15.27;;;-6.50;1.40;;;-6.04;100.00;95268.17;639332;224;23490;-71
2021/01/15 02:46:49;;;;;;;28.65;20.23;;;-6.60;1.40;;;-5.99;100.00;95267.87;633124;224;32073;-71
2021/01/15 02:49:18;;;;;;;22.60;16.87;;;-6.50;1.40;;;-5.80;100.00;95267.09;665166;215;23441;-71
2021/01/15 02:51:47;;;;;;;30.92;23.30;;;-6.30;1.40;;;-5.62;100.00;95267.08;659681;215;32179;-71
2021/01/15 02:54:17;;;;;;;36.53;25.63;;;-6.10;1.40;;;-5.54;100.00;95273.11;659787;215;31595;-72
2021/01/15 02:56:46;;;;;;;32.97;25.60;;;-6.10;1.40;;;-5.68;100.00;95266.31;659645;215;31567;-72
2021/01/15 02:59:15;;;;;;;23.27;18.17;;;-6.20;1.40;;;-5.78;100.00;95273.23;665496;215;24063;-71
2021/01/15 03:02:01;;;;;;;30.73;23.15;;;-6.30;1.40;;;-5.80;100.00;95278.66;642564;221;31777;-71
2021/01/15 03:04:43;;;;;;;24.50;16.90;;;-6.30;1.40;;;-5.75;100.00;95278.85;665312;215;23463;-72
2021/01/15 03:07:12;;;;;;;32.80;24.25;;;-6.30;1.40;;;-5.80;100.00;95281.34;659470;215;31684;-72
2021/01/15 03:09:41;;;;;;;34.40;24.25;;;-6.40;1.40;;;-5.70;100.00;95280.89;633062;224;31107;-72
2021/01/15 03:12:10;;;;;;;35.90;27.52;;;-6.30;1.40;;;-5.75;100.00;95288.42;645326;220;32218;-72
2021/01/15 03:14:39;;;;;;;32.60;18.70;;;-6.30;1.40;;;-5.80;100.00;95288.41;650995;220;24587;-72
2021/01/15 03:17:09;;;;;;;38.38;25.27;;;-6.20;1.40;;;-5.76;100.00;95289.12;645338;220;31749;-72
2021/01/15 03:19:38;;;;;;;32.85;24.87;;;-6.20;1.40;;;-5.98;100.00;95297.13;645411;220;31768;-73
2021/01/15 03:22:10;;;;;;;22.43;18.77;;;-6.40;1.40;;;-6.28;100.00;95301.48;651004;220;24917;-72
2021/01/15 03:24:39;;;;;;;26.50;21.90;;;-6.80;1.40;;;-6.34;100.00;95294.73;645516;220;32614;-72
2021/01/15 03:27:08;;;;;;;27.42;22.85;;;-6.90;1.40;;;-6.46;100.00;95300.19;644896;220;42352;-72
2021/01/15 03:29:37;;;;;;;18.87;15.30;;;-7.00;1.40;;;-6.41;100.00;95298.63;651020;220;23512;-71
2021/01/15 03:32:06;;;;;;;25.60;20.20;;;-6.90;1.40;;;-6.51;100.00;95295.70;645425;220;31792;-72
2021/01/15 03:34:35;;;;;;;27.83;22.23;;;-7.00;1.40;;;-6.60;100.00;95297.20;645385;220;31789;-72
2021/01/15 03:37:04;;;;;;;23.30;18.10;;;-7.00;1.40;;;-6.45;100.00;95300.34;651057;220;29984;-72
2021/01/15 03:39:33;;;;;;;32.13;22.27;;;-6.80;1.40;;;-6.30;100.00;95299.49;645463;220;32303;-72
2021/01/15 03:42:02;;;;;;;38.47;26.62;;;-6.50;1.40;;;-6.20;100.00;95302.16;646906;218;31774;-72
2021/01/15 03:44:31;;;;;;;27.47;19.23;;;-6.50;1.40;;;-6.56;100.00;95308.17;652344;219;24526;-74
2021/01/15 03:47:00;;;;;;;29.25;22.50;;;-6.80;1.40;;;-6.67;100.00;95311.54;646316;220;32222;-72
2021/01/15 03:49:30;;;;;;;30.70;23.00;;;-7.30;1.40;;;-6.94;100.00;95313.50;646291;220;32048;-72
2021/01/15 03:51:59;;;;;;;24.90;17.50;;;-7.60;1.40;;;-7.22;100.00;95314.20;651660;220;25989;-72
2021/01/15 03:54:28;;;;;;;29.27;20.55;;;-7.70;1.40;;;-7.33;100.00;95312.58;646047;220;31731;-72
2021/01/15 03:56:57;;;;;;;27.37;21.42;;;-7.90;1.40;;;-7.51;100.00;95315.54;645926;220;32180;-72
2021/01/15 03:59:26;;;;;;;22.30;16.23;;;-7.80;1.40;;;-7.56;100.00;95314.98;651507;220;25632;-72
2021/01/15 04:01:55;;;;;;;25.27;20.37;;;-7.90;1.40;;;-7.59;100.00;95316.75;645737;220;32001;-72
2021/01/15 04:04:24;;;;;;;25.80;21.00;;;-7.80;1.40;;;-7.56;100.00;95323.92;645610;220;31932;-72
2021/01/15 04:06:53;;;;;;;27.87;23.30;;;-7.80;1.40;;;-7.40;100.00;95313.26;645684;220;31835;-71
2021/01/15 04:09:22;;;;;;;28.37;17.30;;;-7.80;1.40;;;-7.29;100.00;95318.20;651329;220;23551;-71
2021/01/15 04:11:51;;;;;;;43.53;26.60;;;-7.60;1.40;;;-6.97;100.00;95311.16;644309;220;31744;-72
2021/01/15 04:14:21;;;;;;;27.07;19.30;;;-7.20;1.40;;;-6.88;100.00;95316.09;638957;224;26961;-71
2021/01/15 04:16:51;;;;;;;38.03;26.23;;;-7.20;1.40;;;-7.02;100.00;95312.11;645467;220;31931;-72
2021/01/15 04:19:20;;;;;;;25.67;17.80;;;-7.40;1.40;;;-7.06;100.00;95318.58;637883;225;24538;-72
2021/01/15 04:21:49;;;;;;;31.08;24.17;;;-7.50;1.40;;;-7.24;100.00;95315.88;632515;225;31907;-72
2021/01/15 04:24:18;;;;;;;31.53;23.07;;;-7.80;1.40;;;-7.38;100.00;95320.24;632185;225;43137;-72
2021/01/15 04:26:55;;;;;;;22.17;17.33;;;-7.90;1.40;;;-7.41;100.00;95323.52;637944;225;24656;-71
2021/01/15 04:29:25;;;;;;;30.25;22.73;;;-7.80;1.40;;;-7.47;100.00;95326.83;632446;224;32151;-72
2021/01/15 04:31:54;;;;;;;26.10;16.30;;;-7.90;1.40;;;-7.25;100.00;95326.20;637484;225;24003;-72
2021/01/15 04:34:23;;;;;;;47.62;29.08;;;-7.40;1.40;;;-6.90;100.00;95331.75;659388;215;31594;-72
2021/01/15 04:36:52;;;;;;;44.83;31.73;;;-7.10;1.40;;;-6.77;100.00;95334.16;659229;215;42260;-71
2021/01/15 04:39:21;;;;;;;29.57;19.50;;;-7.10;1.40;;;-7.08;100.00;95332.77;665038;215;24520;-72
2021/01/15 04:41:50;;;;;;;35.83;27.30;;;-7.30;1.40;;;-7.20;100.00;95331.05;659408;215;31628;-72
2021/01/15 04:44:19;;;;;;;22.23;18.00;;;-7.50;1.40;;;-7.40;100.00;95327.70;665118;215;23492;-72
2021/01/15 04:46:48;;;;;;;37.15;25.10;;;-7.60;1.40;;;-7.47;100.00;95327.20;659301;215;32147;-73
2021/01/15 04:49:17;;;;;;;31.30;25.30;;;-7.80;1.40;;;-7.58;100.00;95332.23;659408;215;38632;-72
2021/01/15 04:51:46;;;;;;;30.80;23.77;;;-7.80;1.40;;;-7.60;100.00;95337.94;659225;213;31698;-72
2021/01/15 04:54:17;;;;;;;20.90;17.47;;;-8.00;1.40;;;-7.66;100.00;95335.20;666822;214;23478;-72
2021/01/15 04:56:49;;;;;;;28.02;22.05;;;-8.00;1.40;;;-7.69;100.00;95339.30;660631;215;31665;-72
2021/01/15 04:59:18;;;;;;;31.37;24.15;;;-7.90;1.40;;;-7.67;100.00;95339.68;643148;221;32076;-72
2021/01/15 05:01:47;;;;;;;23.07;17.90;;;-7.90;1.40;;;-7.63;100.00;95337.83;665925;215;24541;-71
2021/01/15 05:04:16;;;;;;;31.45;23.25;;;-7.80;1.40;;;-7.57;100.00;95345.11;642745;221;31788;-71
2021/01/15 05:06:48;;;;;;;29.33;24.90;;;-7.80;1.40;;;-7.72;100.00;95343.04;660031;215;31797;-72
2021/01/15 05:09:18;;;;;;;27.65;22.17;;;-7.90;1.40;;;-7.85;100.00;95347.66;659312;215;31651;-72
2021/01/15 05:11:47;;;;;;;27.35;21.87;;;-8.00;1.40;;;-7.91;100.00;95347.34;642516;221;31817;-72
2021/01/15 05:14:16;;;;;;;24.98;19.87;;;-8.20;1.40;;;-7.81;100.00;95348.69;659748;215;31621;-71
2021/01/15 05:16:45;;;;;;;21.10;15.20;;;-8.30;1.40;;;-7.75;100.00;95352.44;665365;215;23465;-71
2021/01/15 05:19:14;;;;;;;27.20;20.60;;;-8.10;1.40;;;-7.80;100.00;95360.15;645654;220;31797;-71
2021/01/15 05:21:43;;;;;;;30.77;24.17;;;-8.10;1.40;;;-7.89;100.00;95359.38;632713;224;32112;-72
2021/01/15 05:24:12;;;;;;;27.70;18.30;;;-8.20;1.40;;;-8.05;100.00;95356.66;638355;224;29923;-73
2021/01/15 05:26:42;;;;;;;29.30;22.37;;;-8.40;1.40;;;-8.10;100.00;95361.58;632848;224;32015;-73
2021/01/15 05:29:11;;;;;;;29.13;21.57;;;-8.40;1.40;;;-8.06;100.00;95358.06;632550;224;31968;-73
2021/01/15 05:31:49;;;;;;;24.13;16.70;;;-8.40;1.40;;;-7.97;100.00;95363.09;638026;225;24566;-73
2021/01/15 05:35:57;;;;;;;28.75;21.85;;;-8.10;1.40;;;-7.86;100.00;95372.21;646947;212;31624;-71
2021/01/15 05:38:26;;;;;;;19.90;15.90;;;-8.00;1.40;;;-7.75;100.00;95373.55;640229;221;29899;-71
2021/01/15 05:40:56;;;;;;;26.33;21.00;;;-7.80;1.40;;;-7.67;100.00;95373.11;635300;220;32940;-73
2021/01/15 05:43:28;;;;;;;29.20;22.10;;;-7.80;1.40;;;-7.56;100.00;95372.20;630276;221;31970;-71
2021/01/15 05:46:06;;;;;;;18.73;15.70;;;-7.80;1.40;;;-7.55;100.00;95376.13;642575;219;24846;-72
2021/01/15 05:48:35;;;;;;;24.58;20.55;;;-7.80;1.40;;;-7.33;100.00;95380.47;651142;215;31648;-72
2021/01/15 05:51:05;;;;;;;25.25;20.67;;;-7.70;1.40;;;-7.27;100.00;95380.10;651719;215;32233;-71
2021/01/15 05:53:40;;;;;;;21.33;15.97;;;-7.60;1.40;;;-7.24;100.00;95379.70;656280;215;23497;-72
2021/01/15 05:56:09;;;;;;;27.20;20.88;;;-7.50;1.40;;;-7.08;100.00;95385.55;649575;215;32401;-73
2021/01/15 05:58:38;;;;;;;32.83;24.67;;;-7.30;1.40;;;-6.79;100.00;95389.55;650579;215;42261;-72
2021/01/15 06:01:07;;;;;;;24.87;19.53;;;-7.00;1.40;;;-6.64;100.00;95390.88;643090;221;24550;-72
2021/01/15 06:03:36;;;;;;;37.90;28.05;;;-6.90;1.40;;;-6.29;100.00;95393.47;625694;225;31994;-72
2021/01/15 06:06:05;;;;;;;49.73;33.63;;;-6.50;1.40;;;-6.03;100.00;95396.86;623007;224;31932;-72
2021/01/15 06:08:47;;;;;;;51.42;34.60;;;-6.40;1.40;;;-5.91;100.00;95407.03;623926;225;32037;-72
2021/01/15 06:13:54;;;;;;;26.42;21.65;;;-6.60;1.40;;;-6.29;100.00;95413.50;646972;216;31584;-71
2021/01/15 06:16:23;;;;;;;21.10;17.23;;;-6.80;1.40;;;-6.24;100.00;95426.83;641379;220;23594;-72
2021/01/15 06:19:02;;;;;;;19.83;17.15;;;-6.80;1.40;;;-6.33;100.00;95425.69;635751;221;31765;-72
2021/01/15 06:21:33;;;;;;;26.30;20.05;;;-6.90;1.40;;;-6.08;100.00;95430.90;635660;221;31797;-72
2021/01/15 06:24:04;;;;;;;34.00;20.37;;;-6.80;1.40;;;-5.93;100.00;95431.45;639593;221;25879;-72
2021/01/15 06:26:39;;;;;;;66.25;30.30;;;-6.50;1.40;;;-5.63;100.00;95435.70;634796;220;31813;-72
2021/01/15 06:29:08;;;;;;;67.53;33.63;;;-6.20;1.40;;;-5.53;100.00;95433.64;636544;221;31761;-72
2021/01/15 06:31:44;;;;;;;49.07;22.60;;;-6.10;1.40;;;-5.56;100.00;95433.69;641124;220;23508;-72
2021/01/15 06:34:13;;;;;;;61.23;34.23;;;-6.00;1.40;;;-5.58;100.00;95439.84;635159;221;32630;-72
2021/01/15 06:36:49;;;;;;;57.97;31.30;;;-6.00;1.40;;;-5.34;100.00;95446.61;635184;220;31744;-71
2021/01/15 06:39:18;;;;;;;50.10;28.43;;;-5.80;1.40;;;-5.60;100.00;95453.08;639637;221;24214;-71
2021/01/15 06:41:47;;;;;;;71.53;35.97;;;-5.90;1.40;;;-5.33;100.00;95447.52;634913;221;31779;-71
2021/01/15 06:44:16;;;;;;;61.00;34.90;;;-5.80;1.40;;;-5.25;100.00;95449.94;628036;221;31927;-72
2021/01/15 06:46:45;;;;;;;47.43;29.17;;;-5.80;1.40;;;-5.12;100.00;95458.03;629548;225;25628;-72
2021/01/15 06:49:15;;;;;;;69.65;38.10;;;-5.70;1.40;;;-5.15;100.00;95462.92;624079;225;31973;-72
2021/01/15 06:51:53;;;;;;;71.07;40.90;;;-5.70;1.40;;;-4.97;100.00;95462.34;624180;224;32025;-72
2021/01/15 06:54:24;;;;;;;77.37;38.25;;;-5.60;1.40;;;-4.81;100.00;95461.56;622936;225;31983;-72
2021/01/15 06:56:53;;;;;;;47.83;26.57;;;-5.50;1.40;;;-4.69;100.00;95465.91;628318;225;24575;-72
2021/01/15 06:59:22;;;;;;;58.87;36.50;;;-5.30;1.40;;;-4.52;100.00;95471.30;626746;225;31922;-72
2021/01/15 07:01:52;;;;;;;51.20;27.37;;;-5.30;1.40;;;-4.64;100.00;95476.38;642799;220;24555;-71
2021/01/15 07:04:27;;;;;;;59.00;35.60;;;-5.20;1.40;;;-4.42;100.00;95471.11;650201;216;31637;-72
2021/01/15 07:07:15;;;;;;;61.55;40.83;;;-5.10;1.40;;;-4.31;100.00;95475.10;651947;216;31607;-71
2021/01/15 07:09:46;;;;;;;48.77;28.30;;;-5.00;1.40;;;-4.37;100.00;95475.08;656785;216;24644;-71
2021/01/15 07:12:15;;;;;;;57.40;37.10;;;-4.90;1.40;;;-4.16;100.00;95474.16;652552;216;31705;-72
2021/01/15 07:14:49;;;;;;;39.13;27.80;;;-4.80;1.40;;;-3.97;100.00;95481.67;636116;224;23474;-72
2021/01/15 07:17:28;;;;;;;61.72;38.53;;;-4.60;1.40;;;-3.86;100.00;95485.71;652534;216;31649;-72
2021/01/15 07:20:06;;;;;;;58.38;40.53;;;-4.60;1.40;;;-3.78;100.00;95488.03;652483;216;31665;-71
2021/01/15 07:22:43;;;;;;;40.43;26.40;;;-4.50;1.40;;;-3.81;100.00;95490.18;657495;216;23538;-72
2021/01/15 07:25:11;;;;;;;58.03;38.38;;;-4.40;1.40;;;-3.47;100.00;95488.57;653367;213;31737;-71
2021/01/15 07:27:40;;;;;;;37.97;26.23;;;-4.30;1.40;;;-3.30;100.00;95496.63;658553;215;28916;-70
2021/01/15 07:30:12;;;;;;;55.90;36.75;;;-4.20;1.40;;;-3.21;100.00;95505.06;652450;215;31612;-70
2021/01/15 07:32:41;;;;;;;40.93;29.37;;;-4.10;1.40;;;-3.20;100.00;95507.48;658269;215;23683;-70
2021/01/15 07:35:13;;;;;;;54.70;38.65;;;-4.10;1.40;;;-3.07;100.00;95512.80;652530;215;31579;-70
2021/01/15 07:37:42;;;;;;;49.53;36.40;;;-4.10;1.40;;;-2.95;100.00;95509.17;652099;215;42092;-70
2021/01/15 07:40:14;;;;;;;41.50;27.90;;;-4.00;1.40;;;-2.98;100.00;95505.01;659433;215;23457;-70
2021/01/15 07:42:47;;;;;;;48.50;34.40;;;-3.90;1.40;;;-2.79;100.00;95510.86;651308;215;31616;-70
2021/01/15 07:45:41;;;;;;;38.93;26.80;;;-3.90;1.40;;;-2.74;100.00;95517.04;657917;215;23458;-69
2021/01/15 07:48:19;;;;;;;49.80;34.88;;;-3.90;1.40;;;-2.85;100.00;95518.75;644581;212;31715;-68
2021/01/15 07:50:48;;;;;;;43.27;31.50;;;-3.80;1.40;;;-2.80;100.00;95520.17;641710;220;23517;-68
2021/01/15 07:53:18;;;;;;;46.72;34.17;;;-3.80;1.40;;;-2.76;100.00;95522.41;635693;220;31863;-69
2021/01/15 07:55:51;;;;;;;39.00;27.00;;;-3.80;1.40;;;-2.60;100.00;95526.83;639818;220;23498;-69
2021/01/15 07:58:20;;;;;;;43.33;31.75;;;-3.60;1.40;;;-2.34;100.00;95529.23;634334;221;31802;-69
2021/01/15 08:00:49;;;;;;;50.58;34.60;;;-3.60;1.40;;;-2.20;100.00;95538.06;634602;220;31862;-69
2021/01/15 08:03:18;;;;;;;36.20;27.17;;;-3.50;1.40;;;-2.19;100.00;95541.42;639569;221;23569;-69
2021/01/15 08:05:48;;;;;;;37.05;28.50;;;-3.40;1.40;;;-2.05;100.00;95534.02;635169;220;31817;-68
2021/01/15 08:08:17;;;;;;;39.87;25.07;;;-3.50;1.40;;;-1.98;100.00;95534.14;640119;221;26814;-69
2021/01/15 08:10:48;;;;;;;39.80;29.50;;;-3.40;1.40;;;-1.88;100.00;95535.52;634115;221;31716;-68
2021/01/15 08:15:54;;;;;;;37.67;28.50;;;-3.20;1.40;;;-1.74;100.00;95545.70;645963;212;42476;-70
2021/01/15 08:18:23;;;;;;;31.57;22.30;;;-3.20;1.40;;;-1.70;100.00;95544.33;641904;220;26679;-70
2021/01/15 08:20:52;;;;;;;29.87;22.53;;;-3.20;1.40;;;-1.72;100.00;95551.50;640754;220;24624;-71
2021/01/15 08:23:22;;;;;;;39.13;27.25;;;-3.20;1.40;;;-1.61;100.00;95554.74;635595;221;32100;-70
2021/01/15 08:25:51;;;;;;;41.35;29.95;;;-3.10;1.40;;;-1.65;100.00;95549.32;635297;221;31825;-70
2021/01/15 08:28:20;;;;;;;37.53;26.00;;;-3.20;1.40;;;-1.77;100.00;95556.84;639538;221;23548;-70
2021/01/15 08:33:25;;;;;;;47.85;33.90;;;-3.20;1.40;;;-1.88;100.00;95561.12;646459;216;31933;-68
2021/01/15 08:35:54;;;;;;;28.13;20.13;;;-3.30;1.40;;;-2.16;100.00;95565.30;640338;220;23636;-69
2021/01/15 08:38:36;;;;;;;37.20;21.10;;;-3.40;1.40;;;-2.25;100.00;95570.23;654739;215;24587;-69
2021/01/15 08:41:15;;;;;;;30.80;19.20;;;-3.30;1.40;;;-1.93;100.00;95574.36;671186;211;25059;-70
2021/01/15 08:43:44;;;;;;;30.03;21.10;;;-3.20;1.40;;;-2.44;100.00;95578.19;662766;211;24513;-75
2021/01/15 08:46:15;;;;;;;26.08;21.77;;;-3.30;1.40;;;-2.42;100.00;95582.27;650361;215;31606;-70
2021/01/15 08:48:44;;;;;;;31.25;24.15;;;-3.30;1.40;;;-1.85;100.00;95586.26;650259;215;32082;-70
2021/01/15 08:51:19;;;;;;;27.00;20.83;;;-3.00;1.40;;;-1.71;100.00;95583.78;635198;224;26809;-70
2021/01/15 08:53:43;;;;;;;28.40;22.25;;;-3.10;1.40;;;-1.50;100.00;95585.27;636514;220;31856;-70
2021/01/15 08:56:12;;;;;;;22.97;17.80;;;-3.00;1.40;;;-2.28;100.00;95592.23;644134;221;23473;-70
2021/01/15 08:58:48;;;;;;;26.20;20.67;;;-3.20;1.40;;;-1.99;100.00;95597.70;648485;215;32111;-70
2021/01/15 09:01:24;;;;;;;23.40;17.53;;;-3.00;1.40;;;-1.76;100.00;95598.09;639237;223;27893;-70
2021/01/15 09:03:53;;;;;;;21.50;15.90;;;-2.80;1.40;;;-1.87;100.00;95604.88;656494;215;31916;-70
2021/01/15 09:06:23;;;;;;;25.30;16.70;;;-2.70;1.40;;;-2.04;100.00;95607.37;630050;224;25135;-70
2021/01/15 09:08:54;;;;;;;23.58;17.45;;;-2.00;1.40;;;-1.45;100.00;95613.88;623748;224;32600;-70
2021/01/15 09:11:29;;;;;;;26.07;18.20;;;-2.00;1.40;;;-1.47;100.00;95613.86;630975;224;23429;-69
2021/01/15 09:13:58;;;;;;;22.20;17.20;;;-1.50;1.40;;;-0.36;100.00;95614.81;640698;220;24515;-70
2021/01/15 09:16:27;;;;;;;18.90;15.30;;;0.40;1.40;;;1.72;93.10;95607.94;655153;215;24764;-69
2021/01/15 09:18:56;;;;;;;20.40;14.43;;;1.60;1.40;;;1.03;87.79;95608.54;655224;216;24485;-70
2021/01/15 09:21:25;;;;;;;16.40;13.90;;;1.00;1.40;;;4.83;84.94;95606.02;655577;215;24503;-70
2021/01/15 09:26:29;;;;;;;17.55;15.93;;;3.60;1.40;;;5.30;76.67;95610.06;646990;216;31625;-70
2021/01/15 09:28:58;;;;;;;17.97;15.97;;;3.50;1.40;;;9.62;70.37;95605.11;639973;220;32046;-70
2021/01/15 09:31:27;;;;;;;17.43;15.60;;;5.60;1.40;;;9.53;57.35;95613.41;640686;220;25649;-70
2021/01/15 09:33:57;;;;;;;16.57;14.97;;;6.20;1.40;;;11.75;49.69;95613.64;641304;221;24519;-70
2021/01/15 09:36:26;;;;;;;17.58;15.82;;;6.60;1.40;;;13.33;56.33;95615.23;636804;220;31752;-70
2021/01/15 09:38:55;;;;;;;17.77;15.83;;;6.90;1.40;;;14.10;51.25;95619.48;654518;215;23858;-70
2021/01/15 09:41:24;;;;;;;16.73;15.10;;;6.50;1.40;;;13.45;48.66;95623.80;670489;211;23455;-70
2021/01/15 09:43:54;;;;;;;15.57;14.00;;;5.50;1.40;;;13.22;56.37;95619.83;662192;211;23503;-70
2021/01/15 09:46:23;;;;;;;17.27;14.50;;;5.30;1.40;;;14.02;52.28;95625.56;641616;220;29845;-70
2021/01/15 09:48:52;;;;;;;17.10;15.50;;;6.30;1.40;;;13.34;47.96;95627.08;641797;220;23543;-71
2021/01/15 09:51:24;;;;;;;17.53;15.73;;;5.40;1.40;;;13.36;54.42;95629.20;656497;215;23465;-71
2021/01/15 09:53:53;;;;;;;17.53;15.77;;;3.80;1.40;;;11.79;56.95;95634.37;632517;224;23586;-71
2021/01/15 09:56:33;;;;;;;18.33;16.63;;;2.40;1.40;;;9.05;58.27;95638.13;651375;215;31635;-71
2021/01/15 09:59:02;;;;;;;19.13;17.10;;;1.70;1.40;;;7.03;53.04;95644.89;653674;215;24489;-71
2021/01/15 10:04:05;;;;;;;18.20;16.30;;;2.90;1.40;;;8.69;62.97;95639.48;617781;222;31969;-70
2021/01/15 10:06:37;;;;;;;16.10;14.47;;;5.10;1.40;;;10.72;55.69;95634.05;614191;230;25674;-70
2021/01/15 10:09:06;;;;;;;17.87;15.27;;;4.60;1.40;;;10.70;55.00;95635.00;613292;229;24730;-70
2021/01/15 10:11:36;;;;;;;15.20;13.67;;;4.70;1.40;;;11.12;44.74;95643.38;614597;230;23649;-71
2021/01/15 10:14:10;;;;;;;17.00;15.30;;;6.30;1.40;;;11.80;46.27;95643.55;614366;230;23614;-71
2021/01/15 10:16:39;;;;;;;16.63;15.03;;;4.60;1.40;;;11.90;54.54;95641.20;612753;230;23648;-71
2021/01/15 10:19:08;;;;;;;16.42;14.73;;;4.10;1.40;;;10.73;44.28;95641.45;607671;229;32376;-71
2021/01/15 10:21:39;;;;;;;16.87;14.70;;;4.70;1.40;;;11.56;46.94;95646.05;614107;229;22538;-70
2021/01/15 10:24:08;;;;;;;17.67;15.97;;;3.60;1.40;;;8.06;52.64;95646.61;607767;230;32351;-70
2021/01/15 10:26:38;;;;;;;16.23;14.70;;;3.80;1.40;;;11.11;50.29;95650.09;613745;230;25739;-71
2021/01/15 10:31:43;;;;;;;17.90;16.00;;;6.40;1.40;;;11.87;51.74;95650.33;645498;212;31658;-72
2021/01/15 10:34:12;;;;;;;17.27;15.67;;;6.30;1.40;;;11.67;49.11;95650.85;641545;221;23148;-70
2021/01/15 10:39:15;;;;;;;19.40;17.60;;;3.40;1.40;;;9.14;48.19;95655.30;618453;225;31987;-71
2021/01/15 10:41:46;;;;;;;18.17;16.30;;;1.80;1.40;;;7.26;56.59;95649.63;615006;230;26987;-69
2021/01/15 10:44:16;;;;;;;17.87;15.97;;;0.50;1.40;;;5.64;59.86;95650.42;607797;230;24674;-71